sensor_id;sensor_type;location;lat;lon;timestamp;P1;durP1;ratioP1;P2;durP2;ratioP2
21420;SDS011;10871;50.144;8.428;2023-12-07T00:02:06;21.98;;;10.85;;
21420;SDS011;10871;50.144;8.428;2023-12-07T00:04:32;25.00;;;11.75;;
21420;SDS011;10871;50.144;8.428;2023-12-07T00:06:59;18.05;;;11.02;;
21420;SDS011;10871;50.144;8.428;2023-12-07T00:09:26;19.40;;;11.10;;
21420;SDS011;10871;50.144;8.428;2023-12-07T00:11:52;19.27;;;11.23;;
21420;SDS011;10871;50.144;8.428;2023-12-07T00:14:18;19.05;;;11.10;;
21420;SDS011;10871;50.144;8.428;2023-12-07T00:16:45;17.98;;;11.13;;
21420;SDS011;10871;50.144;8.428;2023-12-07T00:19:11;23.17;;;11.73;;
21420;SDS011;10871;50.144;8.428;2023-12-07T00:21:38;20.13;;;10.93;;
21420;SDS011;10871;50.144;8.428;2023-12-07T00:24:04;18.75;;;11.63;;
21420;SDS011;10871;50.144;8.428;2023-12-07T00:26:31;17.45;;;9.88;;
21420;SDS011;10871;50.144;8.428;2023-12-07T00:28:57;17.88;;;11.02;;
21420;SDS011;10871;50.144;8.428;2023-12-07T00:31:23;17.70;;;9.27;;
21420;SDS011;10871;50.144;8.428;2023-12-07T00:33:50;18.48;;;10.90;;
21420;SDS011;10871;50.144;8.428;2023-12-07T00:36:16;20.77;;;12.30;;
21420;SDS011;10871;50.144;8.428;2023-12-07T00:38:42;18.65;;;12.13;;
21420;SDS011;10871;50.144;8.428;2023-12-07T00:41:09;22.92;;;12.93;;
21420;SDS011;10871;50.144;8.428;2023-12-07T00:43:35;22.70;;;12.90;;
21420;SDS011;10871;50.144;8.428;2023-12-07T00:46:01;22.25;;;11.75;;
21420;SDS011;10871;50.144;8.428;2023-12-07T00:48:28;18.70;;;11.70;;
21420;SDS011;10871;50.144;8.428;2023-12-07T00:50:55;23.50;;;12.63;;
21420;SDS011;10871;50.144;8.428;2023-12-07T00:53:21;22.58;;;13.25;;
21420;SDS011;10871;50.144;8.428;2023-12-07T00:55:47;20.88;;;12.15;;
21420;SDS011;10871;50.144;8.428;2023-12-07T00:58:14;24.10;;;12.98;;
21420;SDS011;10871;50.144;8.428;2023-12-07T01:00:40;20.67;;;12.63;;
21420;SDS011;10871;50.144;8.428;2023-12-07T01:03:07;21.83;;;13.20;;
21420;SDS011;10871;50.144;8.428;2023-12-07T01:05:33;26.08;;;13.13;;
21420;SDS011;10871;50.144;8.428;2023-12-07T01:08:00;28.05;;;14.82;;
21420;SDS011;10871;50.144;8.428;2023-12-07T01:10:26;28.33;;;14.80;;
21420;SDS011;10871;50.144;8.428;2023-12-07T01:12:53;25.10;;;14.57;;
21420;SDS011;10871;50.144;8.428;2023-12-07T01:15:19;26.38;;;14.23;;
21420;SDS011;10871;50.144;8.428;2023-12-07T01:17:46;27.40;;;14.77;;
21420;SDS011;10871;50.144;8.428;2023-12-07T01:20:12;29.15;;;14.50;;
21420;SDS011;10871;50.144;8.428;2023-12-07T01:22:40;30.45;;;14.73;;
21420;SDS011;10871;50.144;8.428;2023-12-07T01:25:07;26.55;;;14.68;;
21420;SDS011;10871;50.144;8.428;2023-12-07T01:27:34;24.10;;;14.63;;
21420;SDS011;10871;50.144;8.428;2023-12-07T01:30:01;27.73;;;14.77;;
21420;SDS011;10871;50.144;8.428;2023-12-07T01:32:27;18.98;;;12.27;;
21420;SDS011;10871;50.144;8.428;2023-12-07T01:34:53;21.30;;;10.68;;
21420;SDS011;10871;50.144;8.428;2023-12-07T01:37:20;18.67;;;9.70;;
21420;SDS011;10871;50.144;8.428;2023-12-07T01:39:47;18.98;;;9.48;;
21420;SDS011;10871;50.144;8.428;2023-12-07T01:42:14;18.80;;;9.65;;
21420;SDS011;10871;50.144;8.428;2023-12-07T01:44:40;16.05;;;8.93;;
21420;SDS011;10871;50.144;8.428;2023-12-07T01:47:06;15.07;;;8.60;;
21420;SDS011;10871;50.144;8.428;2023-12-07T01:49:34;16.23;;;9.20;;
21420;SDS011;10871;50.144;8.428;2023-12-07T01:52:01;18.50;;;9.82;;
21420;SDS011;10871;50.144;8.428;2023-12-07T01:54:29;16.17;;;9.27;;
21420;SDS011;10871;50.144;8.428;2023-12-07T01:56:55;17.13;;;9.95;;
21420;SDS011;10871;50.144;8.428;2023-12-07T01:59:22;18.58;;;10.20;;
21420;SDS011;10871;50.144;8.428;2023-12-07T02:01:49;23.30;;;10.65;;
21420;SDS011;10871;50.144;8.428;2023-12-07T02:04:17;18.88;;;11.50;;
21420;SDS011;10871;50.144;8.428;2023-12-07T02:06:43;20.48;;;11.05;;
21420;SDS011;10871;50.144;8.428;2023-12-07T02:09:09;18.55;;;11.25;;
21420;SDS011;10871;50.144;8.428;2023-12-07T02:11:36;15.73;;;9.25;;
21420;SDS011;10871;50.144;8.428;2023-12-07T02:14:02;17.77;;;9.88;;
21420;SDS011;10871;50.144;8.428;2023-12-07T02:17:04;17.10;;;9.27;;
21420;SDS011;10871;50.144;8.428;2023-12-07T02:19:31;15.73;;;8.93;;
21420;SDS011;10871;50.144;8.428;2023-12-07T02:22:10;16.98;;;9.18;;
21420;SDS011;10871;50.144;8.428;2023-12-07T02:24:38;17.30;;;8.63;;
21420;SDS011;10871;50.144;8.428;2023-12-07T02:27:08;16.63;;;9.05;;
21420;SDS011;10871;50.144;8.428;2023-12-07T02:29:35;14.82;;;8.70;;
21420;SDS011;10871;50.144;8.428;2023-12-07T02:32:01;17.45;;;8.35;;
21420;SDS011;10871;50.144;8.428;2023-12-07T02:34:28;17.02;;;8.90;;
21420;SDS011;10871;50.144;8.428;2023-12-07T02:36:54;16.98;;;9.23;;
21420;SDS011;10871;50.144;8.428;2023-12-07T02:39:22;16.00;;;8.55;;
21420;SDS011;10871;50.144;8.428;2023-12-07T02:41:49;18.23;;;8.77;;
21420;SDS011;10871;50.144;8.428;2023-12-07T02:44:16;16.00;;;9.20;;
21420;SDS011;10871;50.144;8.428;2023-12-07T02:46:44;16.35;;;8.95;;
21420;SDS011;10871;50.144;8.428;2023-12-07T02:49:10;14.82;;;8.45;;
21420;SDS011;10871;50.144;8.428;2023-12-07T02:51:37;14.45;;;8.88;;
21420;SDS011;10871;50.144;8.428;2023-12-07T02:54:03;15.32;;;9.13;;
21420;SDS011;10871;50.144;8.428;2023-12-07T02:56:30;18.42;;;9.63;;
21420;SDS011;10871;50.144;8.428;2023-12-07T02:58:56;18.63;;;10.32;;
21420;SDS011;10871;50.144;8.428;2023-12-07T03:01:23;19.10;;;10.45;;
21420;SDS011;10871;50.144;8.428;2023-12-07T03:03:49;22.55;;;10.77;;
21420;SDS011;10871;50.144;8.428;2023-12-07T03:06:16;22.00;;;12.23;;
21420;SDS011;10871;50.144;8.428;2023-12-07T03:08:43;22.65;;;11.65;;
21420;SDS011;10871;50.144;8.428;2023-12-07T03:11:09;22.38;;;11.93;;
21420;SDS011;10871;50.144;8.428;2023-12-07T03:13:36;17.58;;;11.15;;
21420;SDS011;10871;50.144;8.428;2023-12-07T03:16:06;24.17;;;11.57;;
21420;SDS011;10871;50.144;8.428;2023-12-07T03:18:33;18.20;;;10.98;;
21420;SDS011;10871;50.144;8.428;2023-12-07T03:21:01;21.05;;;10.35;;
21420;SDS011;10871;50.144;8.428;2023-12-07T03:23:27;19.98;;;10.00;;
21420;SDS011;10871;50.144;8.428;2023-12-07T03:25:54;22.25;;;11.13;;
21420;SDS011;10871;50.144;8.428;2023-12-07T03:28:20;19.25;;;10.50;;
21420;SDS011;10871;50.144;8.428;2023-12-07T03:30:46;22.85;;;11.15;;
21420;SDS011;10871;50.144;8.428;2023-12-07T03:33:13;23.08;;;11.23;;
21420;SDS011;10871;50.144;8.428;2023-12-07T03:35:39;18.70;;;10.82;;
21420;SDS011;10871;50.144;8.428;2023-12-07T03:38:06;23.08;;;10.93;;
21420;SDS011;10871;50.144;8.428;2023-12-07T03:40:32;23.15;;;11.27;;
21420;SDS011;10871;50.144;8.428;2023-12-07T03:42:59;28.88;;;11.23;;
21420;SDS011;10871;50.144;8.428;2023-12-07T03:45:26;25.15;;;10.70;;
21420;SDS011;10871;50.144;8.428;2023-12-07T03:47:54;24.13;;;11.25;;
21420;SDS011;10871;50.144;8.428;2023-12-07T03:50:21;22.85;;;10.93;;
21420;SDS011;10871;50.144;8.428;2023-12-07T03:52:47;26.08;;;12.05;;
21420;SDS011;10871;50.144;8.428;2023-12-07T03:55:13;23.40;;;11.60;;
21420;SDS011;10871;50.144;8.428;2023-12-07T03:57:40;21.00;;;11.10;;
21420;SDS011;10871;50.144;8.428;2023-12-07T04:00:07;24.02;;;12.15;;
21420;SDS011;10871;50.144;8.428;2023-12-07T04:02:34;21.45;;;11.65;;
21420;SDS011;10871;50.144;8.428;2023-12-07T04:05:01;24.50;;;11.73;;
21420;SDS011;10871;50.144;8.428;2023-12-07T04:07:28;26.98;;;12.95;;
21420;SDS011;10871;50.144;8.428;2023-12-07T04:09:55;26.25;;;12.40;;
21420;SDS011;10871;50.144;8.428;2023-12-07T04:12:23;25.13;;;13.00;;
21420;SDS011;10871;50.144;8.428;2023-12-07T04:14:50;24.73;;;11.40;;
21420;SDS011;10871;50.144;8.428;2023-12-07T04:17:17;24.27;;;12.13;;
21420;SDS011;10871;50.144;8.428;2023-12-07T04:19:44;25.98;;;11.85;;
21420;SDS011;10871;50.144;8.428;2023-12-07T04:22:10;23.17;;;12.25;;
21420;SDS011;10871;50.144;8.428;2023-12-07T04:24:37;26.00;;;12.23;;
21420;SDS011;10871;50.144;8.428;2023-12-07T04:27:03;26.38;;;12.05;;
21420;SDS011;10871;50.144;8.428;2023-12-07T04:29:29;23.77;;;11.80;;
21420;SDS011;10871;50.144;8.428;2023-12-07T04:31:56;31.17;;;13.82;;
21420;SDS011;10871;50.144;8.428;2023-12-07T04:34:22;21.23;;;11.98;;
21420;SDS011;10871;50.144;8.428;2023-12-07T04:36:49;27.48;;;13.07;;
21420;SDS011;10871;50.144;8.428;2023-12-07T04:39:15;22.88;;;11.55;;
21420;SDS011;10871;50.144;8.428;2023-12-07T04:41:42;26.17;;;13.05;;
21420;SDS011;10871;50.144;8.428;2023-12-07T04:44:08;28.95;;;12.90;;
21420;SDS011;10871;50.144;8.428;2023-12-07T04:46:34;26.70;;;13.27;;
21420;SDS011;10871;50.144;8.428;2023-12-07T04:49:02;27.33;;;12.73;;
21420;SDS011;10871;50.144;8.428;2023-12-07T04:51:28;25.50;;;12.60;;
21420;SDS011;10871;50.144;8.428;2023-12-07T04:53:55;24.23;;;12.77;;
21420;SDS011;10871;50.144;8.428;2023-12-07T04:56:31;26.33;;;12.00;;
21420;SDS011;10871;50.144;8.428;2023-12-07T04:58:57;22.98;;;12.48;;
21420;SDS011;10871;50.144;8.428;2023-12-07T05:01:25;24.83;;;13.68;;
21420;SDS011;10871;50.144;8.428;2023-12-07T05:03:51;26.38;;;13.23;;
21420;SDS011;10871;50.144;8.428;2023-12-07T05:06:17;25.52;;;13.10;;
21420;SDS011;10871;50.144;8.428;2023-12-07T05:08:44;24.63;;;11.65;;
21420;SDS011;10871;50.144;8.428;2023-12-07T05:11:10;27.15;;;11.77;;
21420;SDS011;10871;50.144;8.428;2023-12-07T05:13:37;30.95;;;13.15;;
21420;SDS011;10871;50.144;8.428;2023-12-07T05:16:03;27.95;;;12.73;;
21420;SDS011;10871;50.144;8.428;2023-12-07T05:18:30;26.42;;;12.02;;
21420;SDS011;10871;50.144;8.428;2023-12-07T05:20:56;23.60;;;11.55;;
21420;SDS011;10871;50.144;8.428;2023-12-07T05:23:23;23.65;;;11.70;;
21420;SDS011;10871;50.144;8.428;2023-12-07T05:25:49;22.45;;;10.75;;
21420;SDS011;10871;50.144;8.428;2023-12-07T05:28:16;20.15;;;10.95;;
21420;SDS011;10871;50.144;8.428;2023-12-07T05:30:42;26.48;;;11.85;;
21420;SDS011;10871;50.144;8.428;2023-12-07T05:33:13;29.25;;;12.23;;
21420;SDS011;10871;50.144;8.428;2023-12-07T05:35:39;35.78;;;13.35;;
21420;SDS011;10871;50.144;8.428;2023-12-07T05:38:06;26.15;;;11.60;;
21420;SDS011;10871;50.144;8.428;2023-12-07T05:40:32;25.00;;;12.15;;
21420;SDS011;10871;50.144;8.428;2023-12-07T05:42:59;27.38;;;12.93;;
21420;SDS011;10871;50.144;8.428;2023-12-07T05:45:26;30.08;;;12.98;;
21420;SDS011;10871;50.144;8.428;2023-12-07T05:47:52;26.92;;;12.10;;
21420;SDS011;10871;50.144;8.428;2023-12-07T05:50:19;30.65;;;13.13;;
21420;SDS011;10871;50.144;8.428;2023-12-07T05:52:46;23.13;;;12.40;;
21420;SDS011;10871;50.144;8.428;2023-12-07T05:55:13;26.58;;;12.35;;
21420;SDS011;10871;50.144;8.428;2023-12-07T05:57:39;30.67;;;12.18;;
21420;SDS011;10871;50.144;8.428;2023-12-07T06:00:06;26.42;;;12.90;;
21420;SDS011;10871;50.144;8.428;2023-12-07T06:02:38;24.23;;;12.25;;
21420;SDS011;10871;50.144;8.428;2023-12-07T06:05:04;25.40;;;11.93;;
21420;SDS011;10871;50.144;8.428;2023-12-07T06:07:31;27.00;;;12.63;;
21420;SDS011;10871;50.144;8.428;2023-12-07T06:09:58;28.33;;;13.23;;
21420;SDS011;10871;50.144;8.428;2023-12-07T06:12:25;28.08;;;13.48;;
21420;SDS011;10871;50.144;8.428;2023-12-07T06:14:54;27.25;;;13.77;;
21420;SDS011;10871;50.144;8.428;2023-12-07T06:17:21;28.08;;;13.23;;
21420;SDS011;10871;50.144;8.428;2023-12-07T06:19:47;30.80;;;13.63;;
21420;SDS011;10871;50.144;8.428;2023-12-07T06:22:14;32.00;;;13.98;;
21420;SDS011;10871;50.144;8.428;2023-12-07T06:24:40;38.33;;;15.45;;
21420;SDS011;10871;50.144;8.428;2023-12-07T06:27:07;30.65;;;15.75;;
21420;SDS011;10871;50.144;8.428;2023-12-07T06:29:33;35.25;;;15.93;;
21420;SDS011;10871;50.144;8.428;2023-12-07T06:31:59;39.22;;;15.65;;
21420;SDS011;10871;50.144;8.428;2023-12-07T06:34:27;36.30;;;15.82;;
21420;SDS011;10871;50.144;8.428;2023-12-07T06:36:54;37.72;;;15.93;;
21420;SDS011;10871;50.144;8.428;2023-12-07T06:39:21;37.67;;;16.17;;
21420;SDS011;10871;50.144;8.428;2023-12-07T06:41:47;34.47;;;14.60;;
21420;SDS011;10871;50.144;8.428;2023-12-07T06:44:13;32.90;;;14.40;;
21420;SDS011;10871;50.144;8.428;2023-12-07T06:46:40;31.75;;;14.65;;
21420;SDS011;10871;50.144;8.428;2023-12-07T06:49:07;35.70;;;14.32;;
21420;SDS011;10871;50.144;8.428;2023-12-07T06:51:33;30.80;;;13.02;;
21420;SDS011;10871;50.144;8.428;2023-12-07T06:54:00;36.30;;;14.95;;
21420;SDS011;10871;50.144;8.428;2023-12-07T06:56:26;30.55;;;13.88;;
21420;SDS011;10871;50.144;8.428;2023-12-07T06:58:53;31.95;;;14.32;;
21420;SDS011;10871;50.144;8.428;2023-12-07T07:01:19;35.00;;;14.30;;
21420;SDS011;10871;50.144;8.428;2023-12-07T07:03:45;37.63;;;16.27;;
21420;SDS011;10871;50.144;8.428;2023-12-07T07:06:12;32.05;;;15.52;;
21420;SDS011;10871;50.144;8.428;2023-12-07T07:08:38;35.92;;;15.38;;
21420;SDS011;10871;50.144;8.428;2023-12-07T07:11:09;38.58;;;17.58;;
21420;SDS011;10871;50.144;8.428;2023-12-07T07:13:37;28.38;;;14.45;;
21420;SDS011;10871;50.144;8.428;2023-12-07T07:16:04;38.50;;;18.52;;
21420;SDS011;10871;50.144;8.428;2023-12-07T07:18:34;38.05;;;18.02;;
21420;SDS011;10871;50.144;8.428;2023-12-07T07:21:01;38.00;;;16.70;;
21420;SDS011;10871;50.144;8.428;2023-12-07T07:23:30;45.35;;;18.95;;
21420;SDS011;10871;50.144;8.428;2023-12-07T07:25:56;42.33;;;16.77;;
21420;SDS011;10871;50.144;8.428;2023-12-07T07:28:23;35.15;;;15.70;;
21420;SDS011;10871;50.144;8.428;2023-12-07T07:30:49;39.50;;;16.25;;
21420;SDS011;10871;50.144;8.428;2023-12-07T07:33:17;35.28;;;16.67;;
21420;SDS011;10871;50.144;8.428;2023-12-07T07:35:44;35.22;;;15.93;;
21420;SDS011;10871;50.144;8.428;2023-12-07T07:38:10;35.53;;;15.40;;
21420;SDS011;10871;50.144;8.428;2023-12-07T07:40:37;31.17;;;15.20;;
21420;SDS011;10871;50.144;8.428;2023-12-07T07:43:03;34.08;;;15.48;;
21420;SDS011;10871;50.144;8.428;2023-12-07T07:45:29;38.25;;;16.27;;
21420;SDS011;10871;50.144;8.428;2023-12-07T07:47:56;38.50;;;16.17;;
21420;SDS011;10871;50.144;8.428;2023-12-07T07:50:22;39.38;;;16.92;;
21420;SDS011;10871;50.144;8.428;2023-12-07T07:52:49;35.97;;;16.98;;
21420;SDS011;10871;50.144;8.428;2023-12-07T07:55:15;35.33;;;17.80;;
21420;SDS011;10871;50.144;8.428;2023-12-07T07:57:42;36.08;;;17.48;;
21420;SDS011;10871;50.144;8.428;2023-12-07T08:00:09;30.85;;;16.98;;
21420;SDS011;10871;50.144;8.428;2023-12-07T08:02:35;36.88;;;17.70;;
21420;SDS011;10871;50.144;8.428;2023-12-07T08:05:02;31.92;;;17.00;;
21420;SDS011;10871;50.144;8.428;2023-12-07T08:07:29;36.08;;;17.55;;
21420;SDS011;10871;50.144;8.428;2023-12-07T08:09:55;41.88;;;18.35;;
21420;SDS011;10871;50.144;8.428;2023-12-07T08:12:22;35.38;;;17.33;;
21420;SDS011;10871;50.144;8.428;2023-12-07T08:14:51;36.67;;;17.08;;
21420;SDS011;10871;50.144;8.428;2023-12-07T08:17:18;37.03;;;16.63;;
21420;SDS011;10871;50.144;8.428;2023-12-07T08:19:45;35.72;;;15.80;;
21420;SDS011;10871;50.144;8.428;2023-12-07T08:22:12;34.25;;;16.27;;
21420;SDS011;10871;50.144;8.428;2023-12-07T08:24:39;39.05;;;16.45;;
21420;SDS011;10871;50.144;8.428;2023-12-07T08:27:06;38.65;;;15.27;;
21420;SDS011;10871;50.144;8.428;2023-12-07T08:29:32;35.85;;;15.80;;
21420;SDS011;10871;50.144;8.428;2023-12-07T08:31:58;33.00;;;15.82;;
21420;SDS011;10871;50.144;8.428;2023-12-07T08:34:25;29.73;;;14.55;;
21420;SDS011;10871;50.144;8.428;2023-12-07T08:36:51;35.35;;;15.30;;
21420;SDS011;10871;50.144;8.428;2023-12-07T08:39:18;31.65;;;15.00;;
21420;SDS011;10871;50.144;8.428;2023-12-07T08:41:44;31.88;;;15.73;;
21420;SDS011;10871;50.144;8.428;2023-12-07T08:44:11;29.38;;;16.15;;
21420;SDS011;10871;50.144;8.428;2023-12-07T08:46:37;31.40;;;17.80;;
21420;SDS011;10871;50.144;8.428;2023-12-07T08:49:04;27.25;;;16.35;;
21420;SDS011;10871;50.144;8.428;2023-12-07T08:51:30;27.67;;;15.35;;
21420;SDS011;10871;50.144;8.428;2023-12-07T08:53:57;26.33;;;13.60;;
21420;SDS011;10871;50.144;8.428;2023-12-07T08:56:23;20.90;;;12.95;;
21420;SDS011;10871;50.144;8.428;2023-12-07T08:58:49;23.08;;;13.55;;
21420;SDS011;10871;50.144;8.428;2023-12-07T09:01:17;19.48;;;11.85;;
21420;SDS011;10871;50.144;8.428;2023-12-07T09:03:57;19.35;;;11.90;;
21420;SDS011;10871;50.144;8.428;2023-12-07T09:06:24;21.40;;;11.70;;
21420;SDS011;10871;50.144;8.428;2023-12-07T09:08:50;19.75;;;11.93;;
21420;SDS011;10871;50.144;8.428;2023-12-07T09:11:16;24.58;;;13.07;;
21420;SDS011;10871;50.144;8.428;2023-12-07T09:13:43;22.48;;;13.27;;
21420;SDS011;10871;50.144;8.428;2023-12-07T09:16:09;19.63;;;12.32;;
21420;SDS011;10871;50.144;8.428;2023-12-07T09:18:36;21.40;;;13.73;;
21420;SDS011;10871;50.144;8.428;2023-12-07T09:21:03;23.85;;;14.68;;
21420;SDS011;10871;50.144;8.428;2023-12-07T09:23:29;22.10;;;14.35;;
21420;SDS011;10871;50.144;8.428;2023-12-07T09:25:55;19.80;;;12.50;;
21420;SDS011;10871;50.144;8.428;2023-12-07T09:28:22;22.75;;;13.82;;
21420;SDS011;10871;50.144;8.428;2023-12-07T09:30:50;27.98;;;13.00;;
21420;SDS011;10871;50.144;8.428;2023-12-07T09:33:16;25.77;;;14.07;;
21420;SDS011;10871;50.144;8.428;2023-12-07T09:35:44;27.55;;;13.68;;
21420;SDS011;10871;50.144;8.428;2023-12-07T09:38:11;23.00;;;13.73;;
21420;SDS011;10871;50.144;8.428;2023-12-07T09:40:37;27.00;;;14.20;;
21420;SDS011;10871;50.144;8.428;2023-12-07T09:43:03;27.55;;;14.38;;
21420;SDS011;10871;50.144;8.428;2023-12-07T09:45:30;27.00;;;14.45;;
21420;SDS011;10871;50.144;8.428;2023-12-07T09:47:57;26.35;;;13.45;;
21420;SDS011;10871;50.144;8.428;2023-12-07T09:50:26;23.38;;;12.18;;
21420;SDS011;10871;50.144;8.428;2023-12-07T09:52:54;24.23;;;12.52;;
21420;SDS011;10871;50.144;8.428;2023-12-07T09:55:33;23.58;;;12.77;;
21420;SDS011;10871;50.144;8.428;2023-12-07T09:58:03;24.52;;;12.70;;
21420;SDS011;10871;50.144;8.428;2023-12-07T10:00:29;25.98;;;13.52;;
21420;SDS011;10871;50.144;8.428;2023-12-07T10:02:56;26.05;;;14.25;;
21420;SDS011;10871;50.144;8.428;2023-12-07T10:05:22;24.80;;;13.25;;
21420;SDS011;10871;50.144;8.428;2023-12-07T10:07:49;23.23;;;13.18;;
21420;SDS011;10871;50.144;8.428;2023-12-07T10:10:17;22.70;;;13.75;;
21420;SDS011;10871;50.144;8.428;2023-12-07T10:12:44;24.30;;;13.27;;
21420;SDS011;10871;50.144;8.428;2023-12-07T10:15:13;28.05;;;13.73;;
21420;SDS011;10871;50.144;8.428;2023-12-07T10:17:55;22.55;;;13.10;;
21420;SDS011;10871;50.144;8.428;2023-12-07T10:20:23;25.77;;;13.73;;
21420;SDS011;10871;50.144;8.428;2023-12-07T10:25:29;21.98;;;13.77;;
21420;SDS011;10871;50.144;8.428;2023-12-07T10:27:55;22.52;;;13.38;;
21420;SDS011;10871;50.144;8.428;2023-12-07T10:30:22;22.20;;;12.25;;
21420;SDS011;10871;50.144;8.428;2023-12-07T10:32:51;21.50;;;12.68;;
21420;SDS011;10871;50.144;8.428;2023-12-07T10:35:18;17.50;;;11.68;;
21420;SDS011;10871;50.144;8.428;2023-12-07T10:37:46;19.42;;;11.23;;
21420;SDS011;10871;50.144;8.428;2023-12-07T10:40:13;15.55;;;10.38;;
21420;SDS011;10871;50.144;8.428;2023-12-07T10:42:40;16.10;;;11.02;;
21420;SDS011;10871;50.144;8.428;2023-12-07T10:45:08;15.95;;;10.80;;
21420;SDS011;10871;50.144;8.428;2023-12-07T10:47:37;17.95;;;11.65;;
21420;SDS011;10871;50.144;8.428;2023-12-07T10:50:07;19.58;;;11.82;;
21420;SDS011;10871;50.144;8.428;2023-12-07T10:52:39;18.75;;;12.00;;
21420;SDS011;10871;50.144;8.428;2023-12-07T10:55:13;17.88;;;11.43;;
21420;SDS011;10871;50.144;8.428;2023-12-07T10:57:41;18.92;;;11.82;;
21420;SDS011;10871;50.144;8.428;2023-12-07T11:00:09;17.90;;;11.07;;
21420;SDS011;10871;50.144;8.428;2023-12-07T11:02:36;19.58;;;11.70;;
21420;SDS011;10871;50.144;8.428;2023-12-07T11:05:03;19.70;;;11.98;;
21420;SDS011;10871;50.144;8.428;2023-12-07T11:07:48;21.13;;;13.18;;
21420;SDS011;10871;50.144;8.428;2023-12-07T11:10:18;23.63;;;13.68;;
21420;SDS011;10871;50.144;8.428;2023-12-07T11:12:53;20.08;;;12.00;;
21420;SDS011;10871;50.144;8.428;2023-12-07T11:15:20;25.80;;;12.55;;
21420;SDS011;10871;50.144;8.428;2023-12-07T11:17:47;31.02;;;16.38;;
21420;SDS011;10871;50.144;8.428;2023-12-07T11:20:21;25.70;;;15.15;;
21420;SDS011;10871;50.144;8.428;2023-12-07T11:22:47;29.50;;;16.67;;
21420;SDS011;10871;50.144;8.428;2023-12-07T11:25:15;29.42;;;16.50;;
21420;SDS011;10871;50.144;8.428;2023-12-07T11:27:43;35.58;;;19.13;;
21420;SDS011;10871;50.144;8.428;2023-12-07T11:30:13;34.42;;;18.00;;
21420;SDS011;10871;50.144;8.428;2023-12-07T11:32:40;39.03;;;19.08;;
21420;SDS011;10871;50.144;8.428;2023-12-07T11:35:11;38.35;;;18.92;;
21420;SDS011;10871;50.144;8.428;2023-12-07T11:40:23;34.30;;;18.08;;
21420;SDS011;10871;50.144;8.428;2023-12-07T11:42:50;36.45;;;18.33;;
21420;SDS011;10871;50.144;8.428;2023-12-07T11:45:19;36.83;;;18.90;;
21420;SDS011;10871;50.144;8.428;2023-12-07T11:48:08;31.92;;;17.02;;
21420;SDS011;10871;50.144;8.428;2023-12-07T11:50:35;41.47;;;18.40;;
21420;SDS011;10871;50.144;8.428;2023-12-07T11:53:01;32.75;;;17.80;;
21420;SDS011;10871;50.144;8.428;2023-12-07T11:55:28;36.33;;;18.77;;
21420;SDS011;10871;50.144;8.428;2023-12-07T11:57:54;38.80;;;19.23;;
21420;SDS011;10871;50.144;8.428;2023-12-07T12:00:20;41.90;;;20.02;;
21420;SDS011;10871;50.144;8.428;2023-12-07T12:02:47;41.58;;;20.45;;
21420;SDS011;10871;50.144;8.428;2023-12-07T12:05:14;40.10;;;19.38;;
21420;SDS011;10871;50.144;8.428;2023-12-07T12:07:40;41.50;;;20.05;;
21420;SDS011;10871;50.144;8.428;2023-12-07T12:10:07;38.67;;;18.00;;
21420;SDS011;10871;50.144;8.428;2023-12-07T12:12:33;38.50;;;18.80;;
21420;SDS011;10871;50.144;8.428;2023-12-07T12:15:00;40.63;;;20.02;;
21420;SDS011;10871;50.144;8.428;2023-12-07T12:17:26;50.78;;;22.55;;
21420;SDS011;10871;50.144;8.428;2023-12-07T12:19:53;52.63;;;23.15;;
21420;SDS011;10871;50.144;8.428;2023-12-07T12:22:21;50.95;;;22.65;;
21420;SDS011;10871;50.144;8.428;2023-12-07T12:24:47;54.95;;;22.42;;
21420;SDS011;10871;50.144;8.428;2023-12-07T12:27:14;60.20;;;23.83;;
21420;SDS011;10871;50.144;8.428;2023-12-07T12:29:40;52.15;;;22.33;;
21420;SDS011;10871;50.144;8.428;2023-12-07T12:32:08;48.10;;;21.48;;
21420;SDS011;10871;50.144;8.428;2023-12-07T12:34:35;54.42;;;23.00;;
21420;SDS011;10871;50.144;8.428;2023-12-07T12:37:02;46.55;;;20.70;;
21420;SDS011;10871;50.144;8.428;2023-12-07T12:39:32;54.97;;;22.10;;
21420;SDS011;10871;50.144;8.428;2023-12-07T12:42:00;58.63;;;24.83;;
21420;SDS011;10871;50.144;8.428;2023-12-07T12:44:27;59.33;;;23.85;;
21420;SDS011;10871;50.144;8.428;2023-12-07T12:47:04;68.88;;;25.55;;
21420;SDS011;10871;50.144;8.428;2023-12-07T12:49:39;88.28;;;26.83;;
21420;SDS011;10871;50.144;8.428;2023-12-07T12:52:10;120.00;;;28.00;;
21420;SDS011;10871;50.144;8.428;2023-12-07T12:54:37;65.78;;;25.15;;
21420;SDS011;10871;50.144;8.428;2023-12-07T12:57:05;89.82;;;25.67;;
21420;SDS011;10871;50.144;8.428;2023-12-07T12:59:32;70.13;;;24.15;;
21420;SDS011;10871;50.144;8.428;2023-12-07T13:01:59;61.70;;;23.40;;
21420;SDS011;10871;50.144;8.428;2023-12-07T13:04:25;162.05;;;26.83;;
21420;SDS011;10871;50.144;8.428;2023-12-07T13:06:52;85.75;;;23.95;;
21420;SDS011;10871;50.144;8.428;2023-12-07T13:09:18;121.97;;;25.27;;
21420;SDS011;10871;50.144;8.428;2023-12-07T13:11:46;78.60;;;23.80;;
21420;SDS011;10871;50.144;8.428;2023-12-07T13:14:13;79.43;;;23.27;;
21420;SDS011;10871;50.144;8.428;2023-12-07T13:16:40;65.00;;;22.55;;
21420;SDS011;10871;50.144;8.428;2023-12-07T13:19:06;65.72;;;23.05;;
21420;SDS011;10871;50.144;8.428;2023-12-07T13:21:33;88.28;;;23.63;;
21420;SDS011;10871;50.144;8.428;2023-12-07T13:24:00;66.72;;;22.38;;
21420;SDS011;10871;50.144;8.428;2023-12-07T13:26:28;76.25;;;21.00;;
21420;SDS011;10871;50.144;8.428;2023-12-07T13:28:54;87.68;;;24.77;;
21420;SDS011;10871;50.144;8.428;2023-12-07T13:31:21;142.60;;;25.45;;
21420;SDS011;10871;50.144;8.428;2023-12-07T13:33:47;76.25;;;23.27;;
21420;SDS011;10871;50.144;8.428;2023-12-07T13:36:22;73.95;;;23.60;;
21420;SDS011;10871;50.144;8.428;2023-12-07T13:38:52;80.72;;;24.35;;
21420;SDS011;10871;50.144;8.428;2023-12-07T13:41:18;91.10;;;23.45;;
21420;SDS011;10871;50.144;8.428;2023-12-07T13:43:45;100.57;;;25.05;;
21420;SDS011;10871;50.144;8.428;2023-12-07T13:46:14;117.65;;;26.23;;
21420;SDS011;10871;50.144;8.428;2023-12-07T13:48:42;128.40;;;27.17;;
21420;SDS011;10871;50.144;8.428;2023-12-07T13:51:08;82.25;;;25.75;;
21420;SDS011;10871;50.144;8.428;2023-12-07T13:53:35;139.85;;;28.00;;
21420;SDS011;10871;50.144;8.428;2023-12-07T13:56:02;129.02;;;28.40;;
21420;SDS011;10871;50.144;8.428;2023-12-07T13:58:30;84.97;;;25.80;;
21420;SDS011;10871;50.144;8.428;2023-12-07T14:00:57;71.07;;;23.60;;
21420;SDS011;10871;50.144;8.428;2023-12-07T14:03:23;83.20;;;23.17;;
21420;SDS011;10871;50.144;8.428;2023-12-07T14:05:50;75.95;;;25.67;;
21420;SDS011;10871;50.144;8.428;2023-12-07T14:08:16;66.72;;;23.98;;
21420;SDS011;10871;50.144;8.428;2023-12-07T14:10:43;70.40;;;25.33;;
21420;SDS011;10871;50.144;8.428;2023-12-07T14:13:09;68.82;;;23.58;;
21420;SDS011;10871;50.144;8.428;2023-12-07T14:15:36;84.35;;;25.83;;
21420;SDS011;10871;50.144;8.428;2023-12-07T14:18:10;93.93;;;28.10;;
21420;SDS011;10871;50.144;8.428;2023-12-07T14:20:37;100.43;;;27.23;;
21420;SDS011;10871;50.144;8.428;2023-12-07T14:23:07;94.63;;;27.38;;
21420;SDS011;10871;50.144;8.428;2023-12-07T14:25:33;95.15;;;26.30;;
21420;SDS011;10871;50.144;8.428;2023-12-07T14:28:00;77.90;;;25.48;;
21420;SDS011;10871;50.144;8.428;2023-12-07T14:30:26;76.28;;;26.10;;